Time;durP1;ratioP1;P1;durP2;ratioP2;P2;SDS_P1;SDS_P2;PMS_P1;PMS_P2;Temp;Humidity;BMP_temperature;BMP_pressure;BME280_temperature;BME280_humidity;BME280_pressure;Samples;Min_cycle;Max_cycle;Signal;HPM_P1;HPM_P2
2022/09/28 00:04:21;;;;;;;2.33;0.98;;;;;;;18.04;56.41;99609.75;5049612;28;20056;-80
2022/09/28 00:06:47;;;;;;;2.05;1.10;;;;;;;18.04;56.27;99618.41;5046963;28;20079;-80
2022/09/28 00:09:14;;;;;;;1.75;1.00;;;;;;;18.05;56.48;99614.03;5014429;28;20448;-79
2022/09/28 00:11:39;;;;;;;2.50;1.05;;;;;;;18.05;56.37;99619.25;5039584;28;20068;-79
2022/09/28 00:14:06;;;;;;;1.73;0.90;;;;;;;18.04;56.27;99620.16;5016446;28;20071;-79
2022/09/28 00:16:38;;;;;;;1.48;0.80;;;;;;;18.04;56.40;99615.81;5042484;28;20110;-79
2022/09/28 00:19:04;;;;;;;1.15;0.80;;;;;;;18.04;56.36;99615.81;5061362;28;20056;-78
2022/09/28 00:21:32;;;;;;;2.28;0.90;;;;;;;18.03;56.30;99618.44;5027780;28;20506;-77
2022/09/28 00:24:13;;;;;;;1.42;0.65;;;;;;;18.03;56.41;99615.84;5068623;28;20064;-78
2022/09/28 00:29:30;;;;;;;1.40;0.70;;;;;;;18.04;56.32;99614.97;5059007;28;20055;-79
2022/09/28 00:31:58;;;;;;;1.00;0.80;;;;;;;18.04;56.44;99612.34;5055856;28;20055;-77
2022/09/28 00:34:35;;;;;;;1.45;0.77;;;;;;;18.03;56.20;99618.44;5075261;28;20063;-80
2022/09/28 00:37:02;;;;;;;1.92;1.00;;;;;;;18.02;56.31;99619.34;5049819;28;20048;-78
2022/09/28 00:39:30;;;;;;;1.50;0.80;;;;;;;18.02;56.36;99616.75;5072360;28;20054;-79
2022/09/28 00:44:34;;;;;;;1.33;0.80;;;;;;;18.02;56.29;99622.81;5054841;28;20431;-80
2022/09/28 00:47:19;;;;;;;1.58;0.80;;;;;;;18.03;56.06;99613.25;5063938;28;20315;-78
2022/09/28 00:49:51;;;;;;;1.15;0.70;;;;;;;18.02;56.19;99611.56;5047121;28;20143;-77
2022/09/28 00:52:31;;;;;;;1.85;0.75;;;;;;;18.02;56.29;99615.00;5059533;28;20041;-78
2022/09/28 00:54:58;;;;;;;1.27;0.85;;;;;;;18.02;56.27;99616.75;5017543;28;20054;-77
2022/09/28 00:57:25;;;;;;;1.67;0.70;;;;;;;18.01;56.40;99615.06;5050124;28;20060;-77
2022/09/28 00:59:51;;;;;;;1.50;0.70;;;;;;;18.02;56.14;99608.94;5038379;28;20060;-79
2022/09/28 01:02:17;;;;;;;1.38;0.77;;;;;;;18.01;56.31;99615.91;5066245;28;20052;-78
2022/09/28 01:04:42;;;;;;;1.30;0.70;;;;;;;18.00;56.29;99611.59;5059708;28;20045;-79
2022/09/28 01:07:09;;;;;;;1.88;0.85;;;;;;;18.01;56.24;99615.06;5056629;28;20116;-77
2022/09/28 01:09:37;;;;;;;2.30;0.80;;;;;;;18.00;56.48;99616.78;5037546;28;20098;-77
2022/09/28 01:12:03;;;;;;;1.77;0.70;;;;;;;18.01;56.30;99612.47;5044891;28;20460;-77
2022/09/28 01:14:28;;;;;;;1.15;0.80;;;;;;;18.00;56.32;99613.34;5045817;28;20143;-78
2022/09/28 01:19:57;;;;;;;1.00;0.75;;;;;;;18.00;56.41;99616.78;5034425;28;1176928;-79
2022/09/28 01:25:38;;;;;;;1.70;0.88;;;;;;;17.98;56.15;99618.59;5062689;28;20474;-79
2022/09/28 01:28:11;;;;;;;1.60;0.80;;;;;;;17.99;56.34;99616.88;5041505;28;20502;-81
2022/09/28 01:33:26;;;;;;;1.60;0.80;;;;;;;17.99;56.41;99619.47;5026369;28;20051;-80
2022/09/28 01:35:56;;;;;;;3.05;0.80;;;;;;;17.98;56.49;99608.19;5050904;28;20056;-82
2022/09/28 01:38:50;;;;;;;1.40;0.77;;;;;;;17.99;56.48;99614.25;5070307;28;20786;-78
2022/09/28 01:41:17;;;;;;;2.25;1.10;;;;;;;17.98;56.26;99608.19;5077060;28;20108;-79
2022/09/28 01:43:50;;;;;;;2.35;0.88;;;;;;;17.98;56.29;99610.78;5070486;28;20094;-80
2022/09/28 01:46:24;;;;;;;1.08;0.65;;;;;;;17.98;56.17;99609.94;5054327;28;20057;-78
2022/09/28 01:48:55;;;;;;;1.38;0.70;;;;;;;17.98;56.31;99609.94;5066678;28;20083;-78
2022/09/28 01:51:54;;;;;;;1.17;0.70;;;;;;;17.98;56.18;99608.19;5012206;28;20044;-79
2022/09/28 01:54:49;;;;;;;1.25;0.70;;;;;;;17.97;56.32;99606.50;5030994;28;20044;-78
2022/09/28 01:57:26;;;;;;;1.58;0.70;;;;;;;17.98;56.10;99612.53;5063554;28;20127;-78
2022/09/28 02:02:26;;;;;;;1.55;0.80;;;;;;;17.96;56.39;99604.75;5057684;28;20128;-78
2022/09/28 02:07:53;;;;;;;0.85;0.50;;;;;;;17.97;56.15;99601.28;5079732;28;20044;-78
2022/09/28 02:10:23;;;;;;;1.63;0.70;;;;;;;17.97;56.19;99603.03;5078201;28;20139;-78
2022/09/28 02:15:36;;;;;;;0.75;0.60;;;;;;;17.95;56.35;99587.47;5077292;28;20052;-78
2022/09/28 02:18:01;;;;;;;2.05;0.70;;;;;;;17.95;56.11;99595.28;5051099;28;20064;-79
2022/09/28 02:20:28;;;;;;;1.02;0.65;;;;;;;17.96;56.03;99596.97;5067110;28;20464;-81
2022/09/28 02:22:55;;;;;;;1.50;0.70;;;;;;;17.96;56.21;99596.13;5030522;28;20037;-78
2022/09/28 02:25:24;;;;;;;1.52;0.70;;;;;;;17.95;56.19;99597.03;5042233;28;20052;-78
2022/09/28 02:30:21;;;;;;;1.73;0.60;;;;;;;17.96;56.29;99616.94;5027154;28;20069;-78
2022/09/28 02:32:50;;;;;;;1.10;0.60;;;;;;;17.95;55.99;99613.50;5037728;28;20437;-78
2022/09/28 02:35:18;;;;;;;1.38;0.65;;;;;;;17.95;56.27;99623.06;5021990;28;21182;-80
2022/09/28 02:37:45;;;;;;;0.98;0.60;;;;;;;17.95;56.38;99623.06;5061065;28;20140;-78
2022/09/28 02:40:16;;;;;;;1.27;0.70;;;;;;;17.95;56.27;99636.06;5047786;28;20059;-77
2022/09/28 02:45:36;;;;;;;1.40;0.50;;;;;;;17.94;56.25;99629.16;5040362;28;20057;-78
2022/09/28 02:48:07;;;;;;;1.05;0.60;;;;;;;17.95;56.17;99629.09;5055802;28;20135;-78
2022/09/28 02:53:42;;;;;;;1.92;0.55;;;;;;;17.94;56.29;99629.16;5065597;28;20682;-78
2022/09/28 02:56:45;;;;;;;1.35;0.70;;;;;;;17.94;56.36;99626.53;5061628;28;20036;-79
2022/09/28 02:59:39;;;;;;;1.00;0.55;;;;;;;17.94;56.37;99624.78;5059309;28;20044;-75
2022/09/28 03:02:25;;;;;;;1.17;0.70;;;;;;;17.93;56.30;99619.66;5065876;28;20442;-76
2022/09/28 03:04:53;;;;;;;1.00;0.60;;;;;;;17.93;56.12;99620.50;5068148;28;20060;-76
2022/09/28 03:07:28;;;;;;;1.73;0.70;;;;;;;17.93;56.14;99611.84;5068067;28;20106;-76
2022/09/28 03:12:23;;;;;;;0.68;0.50;;;;;;;17.93;56.20;99617.03;5068534;28;20056;-75
2022/09/28 03:14:56;;;;;;;1.02;0.60;;;;;;;17.93;56.12;99617.03;5047785;28;20140;-74
2022/09/28 03:17:22;;;;;;;0.88;0.57;;;;;;;17.92;56.30;99605.78;5046071;28;20052;-75
2022/09/28 03:19:47;;;;;;;0.98;0.60;;;;;;;17.91;56.39;99606.66;5054681;28;20064;-75
2022/09/28 03:22:12;;;;;;;0.77;0.43;;;;;;;17.91;56.25;99609.28;5050227;28;20045;-76
2022/09/28 03:24:38;;;;;;;0.98;0.50;;;;;;;17.92;56.15;99611.00;5060522;28;20204;-74
2022/09/28 03:27:03;;;;;;;2.58;0.47;;;;;;;17.91;56.38;99606.66;5037858;28;20095;-75
2022/09/28 03:29:31;;;;;;;1.15;0.60;;;;;;;17.91;56.01;99605.81;5062663;28;20067;-77
2022/09/28 03:31:57;;;;;;;0.75;0.60;;;;;;;17.92;56.02;99604.91;5046604;28;20037;-75
2022/09/28 03:34:22;;;;;;;3.33;0.60;;;;;;;17.91;56.29;99603.22;5046762;28;20044;-79
2022/09/28 03:36:47;;;;;;;1.35;0.60;;;;;;;17.91;56.30;99608.44;5056312;28;20048;-80
2022/09/28 03:39:13;;;;;;;1.50;0.50;;;;;;;17.90;56.34;99607.59;5055151;28;20063;-79
2022/09/28 03:41:38;;;;;;;0.70;0.40;;;;;;;17.89;56.49;99608.47;5064927;28;20045;-79
2022/09/28 03:44:06;;;;;;;0.95;0.60;;;;;;;17.91;56.13;99619.69;5049986;28;20147;-79
2022/09/28 03:46:32;;;;;;;0.65;0.43;;;;;;;17.89;55.96;99622.31;5069737;28;20052;-79
2022/09/28 03:51:22;;;;;;;1.88;0.50;;;;;;;17.91;56.10;99631.84;5065240;28;20048;-79
2022/09/28 03:53:47;;;;;;;0.55;0.40;;;;;;;17.89;56.24;99616.28;5069823;28;20052;-79
2022/09/28 03:56:14;;;;;;;1.50;0.60;;;;;;;17.89;56.13;99619.72;5052923;28;20522;-79
2022/09/28 03:58:40;;;;;;;1.15;0.60;;;;;;;17.89;56.13;99629.28;5067341;28;20560;-78
2022/09/28 04:01:08;;;;;;;1.13;0.50;;;;;;;17.88;56.18;99625.00;5062636;28;20069;-78
2022/09/28 04:03:34;;;;;;;0.90;0.52;;;;;;;17.88;56.31;99625.00;5065526;28;20045;-79
2022/09/28 04:06:00;;;;;;;1.13;0.60;;;;;;;17.87;56.19;99626.72;5065986;28;20059;-78
2022/09/28 04:08:46;;;;;;;0.90;0.50;;;;;;;17.86;56.38;99627.63;5075349;28;20108;-84
2022/09/28 04:11:13;;;;;;;1.27;0.50;;;;;;;17.87;56.33;99624.13;5081227;28;20045;-83
2022/09/28 04:13:41;;;;;;;1.38;0.47;;;;;;;17.87;56.39;99626.72;5064750;28;20048;-84
2022/09/28 04:16:40;;;;;;;0.65;0.40;;;;;;;17.86;56.32;99626.78;5078210;28;20096;-84
2022/09/28 14:05:00;;;;;;;0.73;0.40;;;;;;;18.36;55.89;99824.91;4002355;24;20062;-85
2022/09/28 14:49:22;;;;;;;1.13;0.43;;;;;;;18.40;55.61;99836.97;5496178;24;20036;31
2022/09/28 16:15:44;;;;;;;0.73;0.30;;;;;;;18.32;56.12;99906.66;5896234;24;20462;-86
2022/09/28 16:31:19;;;;;;;0.88;0.43;;;;;;;18.30;56.05;99909.28;4842870;29;20161;-84
2022/09/28 16:45:44;;;;;;;0.70;0.40;;;;;;;18.28;55.91;99916.28;4873368;23;20042;-78
2022/09/28 16:48:16;;;;;;;1.85;0.50;;;;;;;18.28;56.35;99916.28;4830260;29;20058;-79
2022/09/28 16:50:43;;;;;;;0.45;0.35;;;;;;;18.28;56.06;99916.28;4816099;29;20456;-79
2022/09/28 17:03:30;;;;;;;0.40;0.30;;;;;;;18.30;56.35;99921.47;4656212;29;20070;-82
2022/09/28 17:11:38;;;;;;;6.80;0.50;;;;;;;18.35;56.30;99916.97;3033438;27;20046;-78
2022/09/28 17:24:23;;;;;;;4.13;0.57;;;;;;;18.32;56.63;99924.88;5866396;23;20048;-81
2022/09/28 17:34:05;;;;;;;1.70;0.55;;;;;;;18.33;56.82;99923.13;4842988;29;20122;-82
2022/09/28 17:36:31;;;;;;;1.73;0.70;;;;;;;18.29;57.25;99923.22;4810045;29;20085;-80
2022/09/28 17:41:22;;;;;;;1.65;0.52;;;;;;;18.32;57.35;99939.66;4843512;29;20039;-82
2022/09/28 19:03:14;;;;;;;1.90;0.90;;;;;;;18.23;57.44;99938.16;4715074;23;20327;-86
